WIMM

Kualanamu International Airport

Airport
ICAO code
WIMM
IATA Code
KNO
Summary
ICAO Region
APAC
ICAO Territory
Location

Deli Serdang, Sumatra

Serving
Medan
Elevation
23 ft
Coordinates
3° 37' 52" N , 98° 52' 30" E
KCC
Metar
Observation
WIMM 070730Z 03005KT 9999 -RA SCT018 29/25 Q1007 NOSIG
Station
Medan / Polonia
Date/Time
2022-10-07 07:30:00
Wind direction
30°
Wind speed
05 kts
Lowest cloud amount
scattered clouds
Temperature
29°C
Dew point
25°C
Humidity
79%
QNH
1007 hPa
Weather condition
light rain

International Airport serving the city of Medan, Indonesia, about 26 km east of the city.

Climatology

Tropical Rainforest climate (Köppen climate classification Af)

SKYbrary Partners:

Safety knowledge contributed by: